• Join FlightAware (Why Join?)
  • Login
  • US Flag 
12:31AM EDT


 

Airport Tracker/Info


-or-


 

Live Flight TrackerFlight Track Log ✈ FLG3956 ✈ 14-Apr-2013 ✈ KIAD - KDTW

Flight Track Log - Related Links

Times and Time Zones

All times are in EDT time to prevent confusion due to time zone crossing. See the FLG3956 flight status page for this flight to view local times or setup timezone preferences in your user account.

Time Position Orientation Groundspeed Altitude Reporting Facility
EDT Latitude Longitude Course Direction KTS MPH feet Rate Location/Type
07:35PM 39.0000 -77.5167 288° West 211 243 3,000  Level Potomac TRACON
07:36PM 39.0667 -77.5500 339° North 269 310 5,400 2,940 Climbing Potomac TRACON
07:37PM 39.1333 -77.5667 349° North 278 320 9,000 2,100 Climbing Potomac TRACON
07:39PM 39.3208 -77.6628 338° Northwest 308 354 12,500 1,440 Climbing Washington Center
07:40PM 39.4509 -77.5871 288° West  Level FlightAware Approximate
07:40PM 39.4028 -77.7375 325° Northwest 337 388 14,000  Level Washington Center
07:41PM 39.4889 -77.8181 324° Northwest 364 419 15,500 1,200 Climbing Washington Center
07:42PM 39.5536 -77.9197 310° West 372 428 16,500 1,020 Climbing Washington Center
07:43PM 39.5950 -78.0503 292° West 378 435 17,600 900 Climbing Washington Center
07:44PM 39.6317 -78.1836 290° West 378 435 18,400 900 Climbing Washington Center
07:45PM 39.6803 -78.3389 292° West 385 443 19,600 1,020 Climbing Cleveland Center
07:46PM 39.7183 -78.4725 290° West 391 450 20,700 1,020 Climbing Cleveland Center
07:47PM 39.7561 -78.6036 291° West 391 450 21,700 900 Climbing Cleveland Center
07:48PM 39.7936 -78.7350 290° West 391 450 22,600 840 Climbing Cleveland Center
07:49PM 39.8289 -78.8556 291° West 384 442 23,400 780 Climbing Cleveland Center
07:50PM 39.8725 -78.9897 293° West 389 448 24,200 780 Climbing Cleveland Center
07:51PM 39.9097 -79.1242 290° West 389 448 25,000 780 Climbing Cleveland Center
07:52PM 39.9492 -79.2617 291° West 394 453 25,800 780 Climbing Cleveland Center
07:53PM 39.9942 -79.3908 294° West 399 459 26,600 780 Climbing Cleveland Center
07:54PM 40.0558 -79.5117 304° West 399 459 27,400 780 Climbing Cleveland Center
07:55PM 40.1153 -79.6275 304° West 399 459 28,200 780 Climbing Cleveland Center
07:56PM 40.1725 -79.7436 303° West 389 448 29,000 780 Climbing Cleveland Center
07:57PM 40.2317 -79.8569 304° West 389 448 29,800 480 Climbing Cleveland Center
07:58PM 40.2886 -79.9708 303° West 389 448 30,000 -60 Climbing Cleveland Center
07:59PM 40.3475 -80.0928 302° West 389 448 29,700 -660 Descending Cleveland Center
08:00PM 40.4125 -80.2178 304° West 403 464 28,700 -900 Descending Cleveland Center
08:01PM 40.4839 -80.3564 304° West 415 478 28,000 -360 Descending Cleveland Center
08:02PM 40.5486 -80.4875 303° West 420 483 28,000 -300 Level Cleveland Center
08:03PM 40.6111 -80.6186 302° West 420 483 27,500 -780 Descending Cleveland Center
08:04PM 40.6778 -80.7500 304° West 430 495 26,500 -780 Descending Cleveland Center
08:05PM 40.7442 -80.8872 303° West 437 503 26,000 -300 Descending Cleveland Center
08:06PM 40.8125 -81.0247 303° West 437 503 26,000  Level Cleveland Center
08:07PM 40.8767 -81.1625 302° West 437 503 26,000  Level Cleveland Center
08:08PM 40.9467 -81.2950 305° West 442 509 26,000  Level Cleveland Center
08:09PM 41.0106 -81.4142 305° West 442 509 26,000  Level Cleveland Center
08:10PM 41.0825 -81.5500 305° West 449 517 26,000  Level Cleveland Center
08:11PM 41.1625 -81.6947 306° West 444 511 26,000  Level Cleveland Center
08:12PM 41.2319 -81.8283 305° West 449 517 26,000  Level Cleveland Center
08:13PM 41.3033 -81.9650 305° West 449 517 26,000 -1,020 Level Cleveland Center
08:14PM 41.3747 -82.0967 306° West 449 517 24,000 -2,280 Descending Cleveland Center
08:15PM 41.4394 -82.2283 303° West 438 504 21,500 -2,520 Descending Cleveland Center
08:16PM 41.5022 -82.3519 304° West 418 481 19,000 -2,340 Descending Cleveland Center
08:17PM 41.5589 -82.4589 305° West 407 468 16,900 -2,280 Descending Cleveland Center
08:18PM 41.6397 -82.6114 305° West 384 442 14,000 -2,220 Descending Cleveland Center
08:19PM 41.6758 -82.6875 302° West 386 444 12,500 -1,020 Descending Cleveland Center
08:21PM 41.7628 -82.8269 310° West 381 438 12,000 -300 Descending Cleveland Center
08:21PM 41.8158 -82.8900 318° Northwest 366 421 12,000  Level Cleveland Center
08:22PM 41.8464 -82.9247 320° Northwest 379 436 12,000  Level Cleveland Center
08:22PM 41.8931 -82.9850 316° Northwest 366 421 12,000  Level Cleveland Center
08:23PM 41.9236 -83.0194 320° Northwest 380 437 12,000  Level Cleveland Center
08:23PM 41.9725 -83.0772 319° Northwest 379 436 12,000  Level Cleveland Center
08:24PM 42.0050 -83.1178 317° Northwest 379 436 12,000 -120 Level Cleveland Center
08:24PM 42.0436 -83.1639 318° Northwest 373 429 11,900 -300 Descending Cleveland Center
08:25PM 42.0697 -83.1986 315° West 279 321 11,700 -900 Descending Cleveland Center
08:25PM 42.1131 -83.2256 335° Northwest 315 362 11,000 -780 Descending Cleveland Center
08:26PM 42.1358 -83.2272 357° North 246 283 11,000 -1,200 Level FAA TRACON SMA TRACON (SMA)
08:26PM 42.1564 -83.2303 354° North 252 290 10,300 -2,100 Descending FAA TRACON SMA TRACON (SMA)
08:26PM 42.1769 -83.2203 20° North 265 305 9,600 -2,280 Descending FAA TRACON SMA TRACON (SMA)
08:27PM 42.2011 -83.2025 29° Northeast 259 298 8,800 -1,680 Descending FAA TRACON SMA TRACON (SMA)
08:27PM 42.2194 -83.1889 29° Northeast 248 285 8,500 -2,160 Descending FAA TRACON SMA TRACON (SMA)
08:27PM 42.2369 -83.1756 29° Northeast 239 275 7,400 -3,600 Descending FAA TRACON SMA TRACON (SMA)
08:28PM 42.2597 -83.1592 28° Northeast 240 276 6,100 -3,120 Descending FAA TRACON SMA TRACON (SMA)
08:28PM 42.2781 -83.1464 27° Northeast 242 278 5,300 -1,500 Descending FAA TRACON SMA TRACON (SMA)
08:28PM 42.2967 -83.1342 26° Northeast 243 280 5,100 -480 Descending FAA TRACON SMA TRACON (SMA)
08:29PM 42.3203 -83.1183 26° Northeast 244 281 5,000 -480 Descending FAA TRACON SMA TRACON (SMA)
08:29PM 42.3406 -83.1144 North 242 278 4,800 -780 Descending FAA TRACON SMA TRACON (SMA)
08:29PM 42.3556 -83.1247 333° Northwest 209 241 4,500 -1,260 Descending FAA TRACON SMA TRACON (SMA)
08:30PM 42.3717 -83.1525 308° West 224 258 4,000 -780 Descending FAA TRACON SMA TRACON (SMA)
08:30PM 42.3739 -83.1803 276° West 208 239 4,000  Level FAA TRACON SMA TRACON (SMA)
08:30PM 42.3667 -83.2008 245° Southwest 202 232 4,000 -300 Level FAA TRACON SMA TRACON (SMA)
08:31PM 42.3586 -83.2244 245° Southwest 190 219 3,800 -600 Descending FAA TRACON SMA TRACON (SMA)
08:31PM 42.3464 -83.2419 227° Southwest 179 206 3,600 -840 Descending FAA TRACON SMA TRACON (SMA)
08:31PM 42.3336 -83.2528 212° Southwest 187 215 3,300 -1,020 Descending FAA TRACON SMA TRACON (SMA)
08:32PM 42.3197 -83.2622 207° Southwest 185 213 3,000 -1,080 Descending FAA TRACON SMA TRACON (SMA)
08:32PM 42.3025 -83.2733 206° Southwest 185 213 2,600 -1,080 Descending FAA TRACON SMA TRACON (SMA)
08:32PM 42.2894 -83.2828 208° Southwest 180 207 2,300 -900 Descending FAA TRACON SMA TRACON (SMA)
08:33PM 42.2750 -83.2936 209° Southwest 159 183 2,000 -780 Descending FAA TRACON SMA TRACON (SMA)
08:33PM 42.2644 -83.3014 209° Southwest 149 171 1,800 -780 Descending FAA TRACON SMA TRACON (SMA)
08:33PM 42.2514 -83.3106 207° Southwest 144 166 1,500 -900 Descending FAA TRACON SMA TRACON (SMA)
08:34PM 42.2394 -83.3200 210° Southwest 142 163 1,200 -780 Descending FAA TRACON SMA TRACON (SMA)
08:34PM 42.2286 -83.3275 207° Southwest 143 165 1,000 -780 Descending FAA TRACON SMA TRACON (SMA)
08:34PM 42.2156 -83.3369 208° Southwest 137 158 700 -480 Descending FAA TRACON SMA TRACON (SMA)
08:35PM 42.2089 -83.3422 210° Southwest 66 76 700  Level FAA TRACON SMA TRACON (SMA)
08:35PM 42.2078 -83.3428 200° South 57 66 700  Level FAA TRACON SMA TRACON (SMA)